Time;durP1;ratioP1;P1;durP2;ratioP2;P2;SDS_P1;SDS_P2;PMS_P1;PMS_P2;Temp;Humidity;BMP_temperature;BMP_pressure;BME280_temperature;BME280_humidity;BME280_pressure;Samples;Min_cycle;Max_cycle;Signal;HPM_P1;HPM_P2
2023/09/20 00:00:33;;;;;;;;;0.50;0.50;;;;;20.25;64.80;100742.34;5022386;28;45352;-69
2023/09/20 00:02:59;;;;;;;;;2.00;2.00;;;;;20.29;64.71;100746.28;5021586;28;45401;-69
2023/09/20 00:05:26;;;;;;;;;0.25;0.25;;;;;20.32;64.68;100745.88;5025883;28;45475;-69
2023/09/20 00:07:54;;;;;;;;;0.50;0.25;;;;;20.24;64.88;100729.88;5017320;28;46603;-69
2023/09/20 00:10:21;;;;;;;;;1.50;1.00;;;;;20.21;64.65;100727.56;5019674;28;45560;-69
2023/09/20 00:12:46;;;;;;;;;0.75;0.75;;;;;20.11;64.99;100713.69;5031681;28;45282;-69
2023/09/20 00:15:12;;;;;;;;;0.00;0.00;;;;;20.14;65.27;100729.44;5026250;28;45601;-69
2023/09/20 00:17:38;;;;;;;;;1.00;1.00;;;;;20.11;65.38;100719.06;5034443;28;46437;-68
2023/09/20 00:20:12;;;;;;;;;1.00;1.00;;;;;20.17;65.67;100742.53;5017395;28;45401;-69
2023/09/20 00:22:47;;;;;;;;;1.00;1.00;;;;;20.18;65.57;100741.50;5017475;28;45450;-68
2023/09/20 00:25:14;;;;;;;;;1.00;1.00;;;;;20.16;65.79;100740.88;5025355;28;45550;-69
2023/09/20 00:27:41;;;;;;;;;1.50;1.50;;;;;20.15;65.90;100733.81;5029118;28;45966;-69
2023/09/20 00:30:10;;;;;;;;;0.00;0.00;;;;;20.16;66.10;100721.16;5029904;28;45452;-68
2023/09/20 00:32:42;;;;;;;;;2.25;0.00;;;;;20.16;66.29;100726.53;5025361;28;45486;-69
2023/09/20 00:35:10;;;;;;;;;1.25;1.00;;;;;20.12;66.57;100719.91;5015840;28;45313;-69
2023/09/20 00:37:37;;;;;;;;;0.00;0.00;;;;;19.97;66.50;100695.81;4998951;28;46296;-69
2023/09/20 00:40:03;;;;;;;;;1.50;1.50;;;;;19.75;67.13;100660.09;5017586;28;45353;-68
2023/09/20 00:42:28;;;;;;;;;0.25;0.25;;;;;20.08;67.07;100714.09;5017457;28;45435;-69
2023/09/20 00:44:53;;;;;;;;;1.00;1.00;;;;;19.77;67.08;100666.09;5017375;28;45483;-71
2023/09/20 00:47:20;;;;;;;;;2.00;1.00;;;;;20.05;67.82;100709.13;5017256;28;47425;-68
2023/09/20 00:49:46;;;;;;;;;1.00;1.00;;;;;20.11;67.38;100710.97;5017471;28;45261;-70
2023/09/20 00:52:13;;;;;;;;;1.50;1.00;;;;;20.10;67.33;100713.88;5017299;28;45483;-69
2023/09/20 00:54:40;;;;;;;;;1.50;0.75;;;;;20.08;67.81;100721.34;5017637;28;45555;-69
2023/09/20 00:57:07;;;;;;;;;1.00;0.00;;;;;19.94;68.09;100701.63;5016904;28;46134;-69
2023/09/20 00:59:32;;;;;;;;;0.00;0.00;;;;;20.03;68.11;100713.88;5015522;28;45694;-69
2023/09/20 01:02:00;;;;;;;;;0.25;0.25;;;;;19.97;68.01;100707.44;5016871;28;46260;-69
2023/09/20 01:04:27;;;;;;;;;0.00;0.00;;;;;19.91;68.36;100694.78;5017379;28;45648;-69
2023/09/20 01:06:54;;;;;;;;;2.00;2.00;;;;;19.80;68.81;100683.75;5020342;28;46555;-70
2023/09/20 01:09:22;;;;;;;;;2.00;1.75;;;;;19.77;68.48;100693.09;5028058;28;45498;-69
2023/09/20 01:11:48;;;;;;;;;2.00;2.00;;;;;19.74;68.83;100680.84;5033381;28;45578;-69
2023/09/20 01:14:13;;;;;;;;;1.00;0.50;;;;;19.75;68.99;100687.06;5017262;28;45594;-68
2023/09/20 01:16:38;;;;;;;;;1.00;0.00;;;;;19.70;69.27;100692.25;5016589;28;47433;-69
2023/09/20 01:19:04;;;;;;;;;0.75;0.75;;;;;19.62;69.36;100687.91;5016625;28;45286;-68
2023/09/20 01:21:30;;;;;;;;;0.00;0.00;;;;;19.63;68.93;100683.31;5017169;28;45483;-69
2023/09/20 01:23:56;;;;;;;;;0.75;0.75;;;;;19.70;68.79;100700.34;5036329;28;45178;-69
2023/09/20 01:26:22;;;;;;;;;0.00;0.00;;;;;19.75;69.05;100701.38;5015174;28;47088;-68
2023/09/20 01:28:47;;;;;;;;;0.00;0.00;;;;;19.72;69.18;100709.88;5017022;28;45489;-68
2023/09/20 01:31:13;;;;;;;;;0.50;0.00;;;;;19.67;68.99;100696.19;5020063;28;45503;-68
2023/09/20 01:33:38;;;;;;;;;3.00;2.00;;;;;19.54;68.99;100668.34;5020589;28;45444;-69
2023/09/20 01:36:04;;;;;;;;;2.00;0.75;;;;;19.67;69.04;100700.75;5026116;28;61269;-69
2023/09/20 01:38:30;;;;;;;;;0.50;0.50;;;;;19.69;68.75;100691.41;5019995;28;45476;-69
2023/09/20 01:40:56;;;;;;;;;2.00;0.00;;;;;19.70;68.57;100695.78;5022303;28;53205;-69
2023/09/20 01:43:24;;;;;;;;;1.50;1.50;;;;;19.71;68.58;100697.44;5033214;28;45598;-68
2023/09/20 01:45:50;;;;;;;;;1.00;1.00;;;;;19.68;68.22;100692.47;5020297;28;47629;-70
2023/09/20 01:48:16;;;;;;;;;1.00;1.00;;;;;19.71;68.69;100692.03;5013223;28;45341;-68
2023/09/20 01:50:41;;;;;;;;;1.00;1.00;;;;;19.41;68.82;100644.84;5039377;28;45259;-69
2023/09/20 01:53:10;;;;;;;;;1.00;1.00;;;;;19.59;68.91;100677.50;5039682;28;45265;-68
2023/09/20 01:55:44;;;;;;;;;0.50;0.50;;;;;19.61;69.14;100675.41;5031668;28;46885;-69
2023/09/20 01:58:12;;;;;;;;;1.00;1.00;;;;;19.26;69.22;100623.47;5019379;28;45562;-69
2023/09/20 02:00:40;;;;;;;;;2.00;1.00;;;;;19.48;69.77;100672.69;5027768;28;45380;-74
2023/09/20 02:03:18;;;;;;;;;0.25;0.25;;;;;19.25;69.36;100615.59;5020201;28;45277;-68
2023/09/20 02:05:47;;;;;;;;;0.00;0.00;;;;;19.58;69.55;100680.38;5027767;28;46599;-69
2023/09/20 02:08:13;;;;;;;;;0.00;0.00;;;;;19.56;69.75;100685.16;5034700;28;45517;-69
2023/09/20 02:10:39;;;;;;;;;0.00;0.00;;;;;19.30;69.51;100635.50;5027273;28;45175;-69
2023/09/20 02:13:05;;;;;;;;;1.75;0.00;;;;;19.51;69.39;100664.19;5009988;28;45735;-68
2023/09/20 02:15:35;;;;;;;;;1.00;1.00;;;;;19.50;69.85;100669.78;5019421;28;46800;-69
2023/09/20 02:18:05;;;;;;;;;1.00;1.00;;;;;19.31;69.98;100642.56;5034934;28;45584;-68
2023/09/20 02:20:36;;;;;;;;;0.75;0.75;;;;;19.49;70.17;100666.25;5025263;28;45294;-69
2023/09/20 02:23:02;;;;;;;;;1.00;0.25;;;;;19.45;70.01;100659.59;5022466;28;45292;-69
2023/09/20 02:25:28;;;;;;;;;1.00;1.00;;;;;19.35;70.19;100640.28;5032872;28;45760;-68
2023/09/20 02:27:57;;;;;;;;;0.00;0.00;;;;;19.20;70.02;100616.19;5019208;28;47858;-69
2023/09/20 02:30:28;;;;;;;;;1.00;1.00;;;;;19.44;70.61;100655.25;5023665;28;45583;-68
2023/09/20 02:32:57;;;;;;;;;1.00;1.00;;;;;19.40;70.41;100646.72;5034798;28;45490;-68
2023/09/20 02:35:24;;;;;;;;;0.25;0.25;;;;;19.31;70.69;100652.50;5018650;28;47618;-69
2023/09/20 02:37:51;;;;;;;;;1.00;1.00;;;;;19.32;70.49;100648.78;5036216;28;45545;-70
2023/09/20 02:40:20;;;;;;;;;1.00;1.00;;;;;19.34;70.51;100652.09;5027226;28;45334;-68
2023/09/20 02:42:51;;;;;;;;;0.75;0.00;;;;;19.31;70.71;100645.25;5028990;28;45380;-70
2023/09/20 02:45:17;;;;;;;;;0.00;0.00;;;;;19.27;70.98;100635.91;5030247;28;46894;-68
2023/09/20 02:47:43;;;;;;;;;1.00;0.00;;;;;19.29;70.86;100643.81;5015424;28;45322;-69
2023/09/20 02:50:16;;;;;;;;;0.00;0.00;;;;;19.26;71.03;100636.13;5018671;28;45329;-68
2023/09/20 02:52:46;;;;;;;;;0.50;0.50;;;;;19.20;70.64;100639.63;5028680;28;45540;-68
2023/09/20 02:55:13;;;;;;;;;0.00;0.00;;;;;19.23;70.89;100644.63;5020962;28;46688;-69
2023/09/20 02:57:44;;;;;;;;;1.00;1.00;;;;;19.18;70.90;100630.91;5033273;28;45437;-69
2023/09/20 03:00:15;;;;;;;;;1.00;1.00;;;;;18.90;70.90;100587.91;5026289;28;45372;-69
2023/09/20 03:02:46;;;;;;;;;3.00;1.00;;;;;19.20;71.38;100645.84;5028248;28;45472;-69
2023/09/20 03:05:15;;;;;;;;;0.00;0.00;;;;;19.15;71.50;100645.63;5018398;28;45887;-69
2023/09/20 03:07:42;;;;;;;;;2.50;1.00;;;;;18.81;71.72;100587.25;5033263;28;45272;-68
2023/09/20 03:10:12;;;;;;;;;0.50;0.50;;;;;19.03;72.06;100623.00;5029515;28;45464;-68
2023/09/20 03:12:39;;;;;;;;;0.25;0.25;;;;;18.97;72.22;100616.53;5038253;28;45549;-69
2023/09/20 03:15:06;;;;;;;;;2.00;1.00;;;;;18.98;72.67;100622.75;5028964;28;46597;-69
2023/09/20 03:17:31;;;;;;;;;2.00;2.00;;;;;18.86;72.80;100606.34;5026496;28;45441;-69
2023/09/20 03:19:57;;;;;;;;;1.75;1.75;;;;;18.90;72.71;100613.00;5025976;28;45474;-69
2023/09/20 03:22:22;;;;;;;;;0.00;0.00;;;;;18.86;72.94;100603.66;5038376;28;49376;-69
2023/09/20 03:24:48;;;;;;;;;1.25;1.25;;;;;18.89;73.02;100611.34;5018531;28;47465;-68
2023/09/20 03:27:15;;;;;;;;;2.00;1.00;;;;;18.63;72.71;100562.75;5029786;28;45529;-69
2023/09/20 03:29:42;;;;;;;;;1.00;1.00;;;;;18.88;72.69;100593.50;5023689;28;45431;-69
2023/09/20 03:32:08;;;;;;;;;1.00;1.00;;;;;18.60;72.85;100555.84;5033044;28;46015;-69
2023/09/20 03:34:33;;;;;;;;;0.00;0.00;;;;;18.82;73.14;100594.28;5025344;28;45552;-68
2023/09/20 03:36:59;;;;;;;;;0.00;0.00;;;;;18.79;73.06;100597.41;5036200;28;54456;-69
2023/09/20 03:39:24;;;;;;;;;2.00;2.00;;;;;18.80;73.32;100586.41;5019100;28;45645;-69
2023/09/20 03:41:51;;;;;;;;;1.00;1.00;;;;;18.80;73.35;100581.03;5028941;28;45464;-69
2023/09/20 03:44:17;;;;;;;;;1.00;1.00;;;;;18.85;73.25;100591.22;5029780;28;47431;-68
2023/09/20 03:46:42;;;;;;;;;1.75;1.00;;;;;18.83;73.08;100585.22;5025992;28;45393;-69
2023/09/20 03:49:07;;;;;;;;;1.00;1.00;;;;;18.86;73.14;100578.59;5040743;28;45294;-75
2023/09/20 03:51:33;;;;;;;;;1.00;1.00;;;;;18.73;73.39;100555.13;5028561;28;45470;-68
2023/09/20 03:53:58;;;;;;;;;1.25;1.25;;;;;18.73;73.91;100569.41;5025845;28;46570;-68
2023/09/20 03:56:23;;;;;;;;;0.50;0.50;;;;;18.77;73.52;100577.91;5035138;28;51502;-69
2023/09/20 03:58:49;;;;;;;;;1.25;0.50;;;;;18.77;73.39;100569.84;5032773;28;45455;-71
2023/09/20 04:01:15;;;;;;;;;1.00;1.00;;;;;18.46;73.49;100511.91;5020885;28;45427;-68
2023/09/20 04:03:42;;;;;;;;;1.00;1.00;;;;;18.79;73.58;100570.47;5035006;28;46567;-69
2023/09/20 04:06:07;;;;;;;;;1.00;1.00;;;;;18.76;73.43;100557.41;5029348;28;45587;-69
2023/09/20 04:08:32;;;;;;;;;1.00;1.00;;;;;18.76;73.54;100569.00;5032472;28;45512;-68
2023/09/20 04:10:58;;;;;;;;;1.00;1.00;;;;;18.73;73.77;100547.88;5023544;28;45301;-69
2023/09/20 04:13:24;;;;;;;;;2.00;1.00;;;;;18.77;73.67;100556.38;5026829;28;46086;-71
2023/09/20 04:15:50;;;;;;;;;1.00;1.00;;;;;18.78;73.60;100558.84;5032393;28;45500;-68
2023/09/20 04:18:15;;;;;;;;;1.00;1.00;;;;;18.80;73.02;100548.72;5023754;28;45461;-68
2023/09/20 04:20:41;;;;;;;;;1.00;1.00;;;;;18.78;73.74;100553.47;5036717;28;45641;-69
2023/09/20 04:23:07;;;;;;;;;1.75;1.75;;;;;18.74;73.82;100560.31;5038925;28;46031;-68
2023/09/20 04:25:32;;;;;;;;;1.50;1.50;;;;;18.72;73.69;100551.59;5018466;28;45463;-69
2023/09/20 04:27:58;;;;;;;;;1.75;1.75;;;;;18.75;73.43;100553.06;5023141;28;47612;-69
2023/09/20 04:30:23;;;;;;;;;2.00;1.00;;;;;18.51;73.55;100498.66;5025249;28;45471;-69
2023/09/20 04:32:48;;;;;;;;;1.00;1.00;;;;;18.80;73.47;100551.41;5030198;28;45683;-69
2023/09/20 04:35:14;;;;;;;;;0.00;0.00;;;;;18.76;73.33;100535.84;5018081;28;45190;-69
2023/09/20 04:37:39;;;;;;;;;2.25;1.25;;;;;18.49;73.47;100492.66;5035330;28;45499;-69
2023/09/20 04:40:08;;;;;;;;;3.00;2.00;;;;;18.48;73.55;100479.41;5017212;28;45544;-69
2023/09/20 04:42:35;;;;;;;;;2.00;1.00;;;;;18.74;73.58;100530.69;5027350;28;46606;-69
2023/09/20 04:45:01;;;;;;;;;2.00;0.25;;;;;18.73;73.30;100525.50;5015174;28;45496;-70
2023/09/20 04:47:28;;;;;;;;;0.00;0.00;;;;;18.76;73.76;100531.31;5022403;28;45415;-69
2023/09/20 04:49:53;;;;;;;;;0.50;0.00;;;;;18.76;73.50;100530.47;5017382;28;45368;-69
2023/09/20 04:52:19;;;;;;;;;1.00;1.00;;;;;18.74;73.38;100522.59;5019791;28;47152;-69
2023/09/20 04:54:44;;;;;;;;;0.50;0.50;;;;;18.70;73.65;100517.81;5028006;28;68517;-70
2023/09/20 04:57:13;;;;;;;;;1.25;1.25;;;;;18.69;73.86;100513.47;5031200;28;45308;-70
2023/09/20 04:59:39;;;;;;;;;1.00;1.00;;;;;18.69;73.90;100524.25;5020740;28;45319;-68
2023/09/20 05:02:05;;;;;;;;;1.50;1.00;;;;;18.55;73.92;100502.63;5016609;28;45915;-69
2023/09/20 05:04:34;;;;;;;;;0.00;0.00;;;;;18.60;73.82;100515.47;5020180;28;45455;-69
2023/09/20 05:07:01;;;;;;;;;1.00;1.00;;;;;18.48;73.86;100495.56;5016712;28;45578;-69
2023/09/20 05:09:26;;;;;;;;;1.00;1.00;;;;;18.61;73.94;100525.19;5028615;28;45482;-68
2023/09/20 05:11:52;;;;;;;;;2.25;1.00;;;;;18.24;74.03;100454.69;5019512;28;45981;-69
2023/09/20 05:14:17;;;;;;;;;3.50;3.50;;;;;18.63;74.31;100519.69;5022899;28;66148;-68
2023/09/20 05:16:45;;;;;;;;;1.00;1.00;;;;;18.64;73.93;100521.34;5015653;28;45361;-69
2023/09/20 05:19:11;;;;;;;;;1.00;1.00;;;;;18.25;74.10;100458.22;5030069;28;45305;-69
2023/09/20 05:21:37;;;;;;;;;0.75;0.75;;;;;18.39;73.56;100481.44;5019117;28;47217;-70
2023/09/20 05:24:04;;;;;;;;;3.00;2.00;;;;;18.56;73.52;100506.13;5025352;28;45553;-70
2023/09/20 05:26:29;;;;;;;;;2.00;2.00;;;;;18.52;73.59;100500.34;5004174;28;45267;-69
2023/09/20 05:28:54;;;;;;;;;2.00;2.00;;;;;18.64;73.58;100521.34;5022294;28;45571;-69
2023/09/20 05:31:26;;;;;;;;;3.75;2.00;;;;;18.62;73.73;100526.03;5022792;28;46392;-69
2023/09/20 05:33:52;;;;;;;;;1.25;1.25;;;;;18.49;73.80;100508.81;5032370;28;45678;-69
2023/09/20 05:36:21;;;;;;;;;1.00;1.00;;;;;18.46;74.08;100520.00;5015834;28;45471;-69
2023/09/20 05:38:48;;;;;;;;;2.75;2.75;;;;;18.47;74.13;100527.03;5021048;28;45615;-69
2023/09/20 05:41:15;;;;;;;;;2.00;1.00;;;;;18.54;73.89;100535.97;5018454;28;46634;-69
2023/09/20 05:43:42;;;;;;;;;1.75;1.75;;;;;18.53;74.18;100525.41;5030571;28;45573;-70
2023/09/20 05:46:10;;;;;;;;;2.00;2.00;;;;;18.48;74.37;100523.31;5020577;28;45459;-74
2023/09/20 05:48:36;;;;;;;;;1.75;1.75;;;;;18.57;74.15;100536.59;5006159;28;45615;-69
2023/09/20 05:51:01;;;;;;;;;1.25;1.00;;;;;18.58;73.85;100527.47;5019034;28;47417;-69
2023/09/20 05:53:28;;;;;;;;;1.00;1.00;;;;;18.55;74.03;100524.16;5026108;28;45267;-68
2023/09/20 05:55:53;;;;;;;;;1.00;1.00;;;;;18.59;74.18;100523.75;5018864;28;45358;-75
2023/09/20 05:58:19;;;;;;;;;1.00;1.00;;;;;18.49;74.04;100511.50;5028088;28;45458;-70
2023/09/20 06:00:44;;;;;;;;;1.00;1.00;;;;;18.54;74.23;100502.81;4997497;28;50167;-71
2023/09/20 06:03:12;;;;;;;;;4.25;2.00;;;;;18.54;74.25;100510.91;5037009;28;45981;-70
2023/09/20 06:05:38;;;;;;;;;0.50;0.50;;;;;18.38;74.50;100473.56;5014259;28;45555;-70
2023/09/20 06:08:07;;;;;;;;;1.75;1.25;;;;;18.57;74.26;100496.19;5022980;28;45463;-70
2023/09/20 06:10:33;;;;;;;;;1.00;1.00;;;;;18.54;74.41;100489.34;5023829;28;47327;-71
2023/09/20 06:12:59;;;;;;;;;4.00;1.33;;;;;18.52;74.04;100476.09;5032500;28;45515;-71
2023/09/20 06:15:24;;;;;;;;;1.67;1.67;;;;;18.61;74.16;100494.75;5020245;28;45495;-70
2023/09/20 06:17:50;;;;;;;;;2.33;2.33;;;;;18.54;74.21;100489.34;5021419;28;45578;-70
2023/09/20 06:20:19;;;;;;;;;2.00;2.00;;;;;18.41;74.55;100457.81;5041411;28;46352;-73
2023/09/20 06:22:52;;;;;;;;;1.25;1.25;;;;;18.59;74.08;100486.88;5018638;28;45254;-69
2023/09/20 06:25:21;;;;;;;;;4.25;2.75;;;;;18.68;73.86;100490.28;5028307;28;45679;-69
2023/09/20 06:27:50;;;;;;;;;3.00;2.00;;;;;18.45;74.14;100456.41;5029507;28;45424;-72
2023/09/20 06:30:17;;;;;;;;;1.50;1.50;;;;;18.39;73.88;100432.16;5033631;28;45792;-70
2023/09/20 06:32:44;;;;;;;;;4.50;2.75;;;;;18.70;73.62;100477.44;5019281;28;45376;-70
2023/09/20 06:35:10;;;;;;;;;3.50;3.50;;;;;18.89;73.06;100492.81;5033775;28;45377;-69
2023/09/20 06:37:36;;;;;;;;;3.00;2.25;;;;;18.95;72.90;100491.97;5027299;28;45600;-71
2023/09/20 06:40:05;;;;;;;;;3.00;1.75;;;;;18.75;72.54;100451.53;5025245;28;48522;-69
2023/09/20 06:42:30;;;;;;;;;2.00;2.00;;;;;19.05;72.26;100503.19;5022588;28;45473;-70
2023/09/20 06:44:56;;;;;;;;;1.00;1.00;;;;;19.09;71.89;100500.91;5033769;28;45727;-70
2023/09/20 06:47:22;;;;;;;;;4.00;2.00;;;;;19.19;71.73;100501.34;5019492;28;45349;-69
2023/09/20 06:49:48;;;;;;;;;2.50;2.00;;;;;19.10;71.76;100472.94;5035509;28;45965;-71
2023/09/20 06:52:13;;;;;;;;;2.00;2.00;;;;;19.26;72.09;100498.66;5019813;28;45522;-70
2023/09/20 06:54:39;;;;;;;;;2.00;2.00;;;;;19.29;71.38;100498.25;5031857;28;45277;-69
2023/09/20 06:57:05;;;;;;;;;5.00;5.00;;;;;19.34;71.55;100507.38;5031037;28;45516;-70
2023/09/20 06:59:34;;;;;;;;;2.50;2.25;;;;;19.37;71.10;100500.72;5031424;28;47105;-70
2023/09/20 07:02:00;;;;;;;;;1.50;1.50;;;;;19.38;70.77;100497.00;5026941;28;45403;-71
2023/09/20 07:04:26;;;;;;;;;4.00;3.00;;;;;19.39;70.90;100488.69;5026422;28;45370;-69
2023/09/20 07:06:55;;;;;;;;;2.25;2.25;;;;;19.35;70.68;100483.94;5031497;28;45260;-69
2023/09/20 07:09:21;;;;;;;;;2.50;1.50;;;;;19.37;70.95;100500.72;5004705;28;46610;-68
2023/09/20 07:11:48;;;;;;;;;7.00;4.25;;;;;19.32;71.16;100492.44;5020136;28;45922;-69
2023/09/20 07:14:14;;;;;;;;;2.25;2.25;;;;;19.52;70.68;100493.25;5034754;28;45544;-69
2023/09/20 07:16:40;;;;;;;;;3.25;3.25;;;;;19.53;70.04;100478.75;5023967;28;45650;-70
2023/09/20 07:19:06;;;;;;;;;4.33;3.33;;;;;19.36;69.94;100445.16;5043426;28;46706;-71
2023/09/20 07:21:37;;;;;;;;;2.25;2.25;;;;;19.74;68.91;100502.81;5023417;28;45501;-73
2023/09/20 07:24:08;;;;;;;;;3.00;3.00;;;;;19.52;69.23;100460.91;5017033;28;45392;-71
2023/09/20 07:26:33;;;;;;;;;2.00;2.00;;;;;19.78;69.11;100497.81;5015104;28;45643;-70
2023/09/20 07:28:59;;;;;;;;;7.00;5.33;;;;;19.69;69.12;100489.13;5017492;28;46738;-77
2023/09/20 07:31:27;;;;;;;;;4.75;3.00;;;;;19.61;69.25;100475.00;5024952;28;45221;-69
2023/09/20 07:33:55;;;;;;;;;1.00;1.00;;;;;19.64;69.62;100490.81;5028039;28;45416;-69
2023/09/20 07:36:20;;;;;;;;;3.25;2.00;;;;;19.38;69.49;100437.69;5025126;28;45475;-69
2023/09/20 07:38:46;;;;;;;;;2.75;2.75;;;;;19.72;69.24;100495.97;5022976;28;46212;-68
2023/09/20 07:41:17;;;;;;;;;4.00;2.75;;;;;19.74;69.18;100497.41;5017539;28;45740;-70
2023/09/20 07:43:47;;;;;;;;;2.50;2.00;;;;;19.70;69.01;100490.78;5023718;28;45494;-69
2023/09/20 07:46:14;;;;;;;;;2.00;2.00;;;;;19.82;68.90;100474.78;5017818;28;45486;-69
2023/09/20 07:48:47;;;;;;;;;1.75;1.75;;;;;19.83;68.97;100483.72;5023097;28;46651;-70
2023/09/20 07:51:14;;;;;;;;;3.00;3.00;;;;;19.90;68.67;100484.53;5024720;28;45394;-68
2023/09/20 07:53:40;;;;;;;;;2.00;2.00;;;;;19.99;68.23;100483.25;5029260;28;45603;-70
2023/09/20 07:56:06;;;;;;;;;4.50;2.00;;;;;19.96;68.09;100462.91;5019273;28;45234;-68
2023/09/20 07:58:41;;;;;;;;;6.00;3.50;;;;;20.20;67.96;100474.88;5017976;28;47628;-70
2023/09/20 08:01:17;;;;;;;;;1.75;1.75;;;;;20.05;67.80;100452.72;5037268;28;45471;-69
2023/09/20 08:03:50;;;;;;;;;3.00;3.00;;;;;20.28;67.55;100476.53;5017693;28;45183;-70
2023/09/20 08:06:17;;;;;;;;;2.00;2.00;;;;;20.46;67.12;100467.75;5020551;28;45519;-70
2023/09/20 08:08:42;;;;;;;;;4.67;4.67;;;;;20.62;66.17;100461.81;5026851;28;47107;-71
2023/09/20 08:11:07;;;;;;;;;2.75;1.00;;;;;20.66;66.01;100460.38;5021600;28;45271;-69
2023/09/20 08:13:33;;;;;;;;;4.50;2.50;;;;;20.72;65.83;100473.00;5021211;28;45444;-69
2023/09/20 08:16:02;;;;;;;;;1.50;1.50;;;;;20.83;66.07;100480.44;5032898;28;45538;-69
2023/09/20 08:21:11;;;;;;;;;0.75;0.75;;;;;21.01;65.02;100459.91;5022318;28;45467;-69
2023/09/20 09:02:14;;;;;;;;;2.00;1.00;;;;;22.82;57.87;100462.16;5030366;28;45306;-69
2023/09/20 09:04:44;;;;;;;;;2.50;2.00;;;;;22.83;57.92;100470.09;5030600;28;45520;-69
2023/09/20 09:07:10;;;;;;;;;3.50;3.50;;;;;22.82;58.03;100473.84;5020696;28;45324;-71
2023/09/20 09:09:35;;;;;;;;;3.25;2.25;;;;;22.81;58.10;100455.91;5037681;28;45511;-69
2023/09/20 09:12:01;;;;;;;;;1.50;1.50;;;;;23.04;57.49;100464.16;5016484;28;45626;-69
2023/09/20 09:14:27;;;;;;;;;2.00;1.00;;;;;23.45;57.33;100457.00;5025536;28;45323;-69
2023/09/20 09:17:04;;;;;;;;;1.00;1.00;;;;;23.64;54.84;100392.59;5017451;28;45550;-69
2023/09/20 09:19:29;;;;;;;;;3.75;2.00;;;;;24.22;54.14;100426.91;5025617;28;45379;-69
2023/09/20 09:21:58;;;;;;;;;2.25;1.25;;;;;24.67;52.70;100442.50;5017130;28;47437;-68
2023/09/20 09:24:24;;;;;;;;;2.25;1.75;;;;;24.90;51.88;100436.91;5031463;28;45352;-69
2023/09/20 09:27:02;;;;;;;;;1.50;1.50;;;;;25.05;51.28;100429.06;5019405;28;45357;-68
2023/09/20 09:29:28;;;;;;;;;2.50;2.50;;;;;25.26;50.54;100418.50;5024402;28;45355;-69
2023/09/20 09:31:55;;;;;;;;;1.25;1.00;;;;;25.38;50.39;100421.94;5026625;28;47543;-69
2023/09/20 09:34:21;;;;;;;;;3.00;1.25;;;;;25.15;49.65;100374.81;5028176;28;45543;-69
2023/09/20 09:36:47;;;;;;;;;1.50;1.50;;;;;25.39;48.74;100415.41;5016761;28;45856;-70
2023/09/20 09:39:15;;;;;;;;;3.00;1.75;;;;;24.91;49.11;100389.63;5036781;28;45505;-68
2023/09/20 09:41:44;;;;;;;;;2.00;1.50;;;;;24.87;49.63;100404.78;5022835;28;45635;-69
2023/09/20 09:44:10;;;;;;;;;3.50;2.25;;;;;24.72;49.68;100402.63;5025531;28;46586;-69
2023/09/20 09:46:38;;;;;;;;;3.25;3.25;;;;;24.62;49.40;100401.59;5025548;28;45329;-68
2023/09/20 09:49:18;;;;;;;;;1.00;1.00;;;;;24.45;49.69;100383.41;5024444;28;45450;-68
2023/09/20 09:51:52;;;;;;;;;1.00;1.00;;;;;24.23;49.67;100376.97;5029539;28;46643;-70
2023/09/20 09:54:19;;;;;;;;;1.00;1.00;;;;;24.15;49.98;100366.47;5027028;28;45550;-69
2023/09/20 09:56:45;;;;;;;;;5.25;3.00;;;;;24.19;50.33;100371.19;5043169;28;45421;-69
2023/09/20 09:59:11;;;;;;;;;3.00;2.00;;;;;24.16;48.98;100362.69;5027737;28;45523;-69
2023/09/20 10:01:38;;;;;;;;;2.00;1.00;;;;;24.07;49.31;100378.56;5029681;28;47039;-69
2023/09/20 10:04:07;;;;;;;;;2.00;2.00;;;;;24.10;49.12;100369.94;5016856;28;45468;-70
2023/09/20 10:06:37;;;;;;;;;3.00;1.75;;;;;23.90;48.85;100342.38;5042760;28;45545;-71
2023/09/20 10:09:10;;;;;;;;;1.50;1.50;;;;;23.82;48.49;100365.28;5037918;28;45472;-69
2023/09/20 10:11:38;;;;;;;;;2.00;2.00;;;;;23.40;48.75;100323.09;5035297;28;47467;-69
2023/09/20 10:14:07;;;;;;;;;1.00;1.00;;;;;23.50;49.03;100339.59;5021055;28;45427;-69
2023/09/20 10:16:34;;;;;;;;;1.00;1.00;;;;;23.62;49.05;100356.72;5029835;28;45675;-69
2023/09/20 10:19:01;;;;;;;;;2.25;2.25;;;;;23.67;49.21;100351.41;5018557;28;45555;-70
2023/09/20 10:21:30;;;;;;;;;1.50;1.00;;;;;23.62;48.35;100348.56;5026915;28;46970;-69
2023/09/20 10:24:02;;;;;;;;;1.00;1.00;;;;;23.56;47.55;100346.78;5034567;28;45314;-69
2023/09/20 10:26:29;;;;;;;;;2.25;1.00;;;;;23.41;46.85;100331.00;5027332;28;45534;-69
2023/09/20 10:29:25;;;;;;;;;2.50;1.25;;;;;23.30;45.67;100340.00;5005501;28;45506;-70
2023/09/20 10:31:53;;;;;;;;;1.00;1.00;;;;;23.22;45.39;100315.91;5019261;28;45581;-70
2023/09/20 10:34:19;;;;;;;;;2.00;2.00;;;;;22.75;45.33;100256.28;5042792;28;45546;-69
2023/09/20 10:36:52;;;;;;;;;1.25;1.25;;;;;23.20;46.48;100323.47;5026060;28;45555;-70
2023/09/20 10:39:17;;;;;;;;;2.00;2.00;;;;;23.14;46.51;100325.25;5033499;28;45358;-70
2023/09/20 10:41:47;;;;;;;;;1.50;1.00;;;;;23.10;46.19;100318.66;5018777;28;48353;-69
2023/09/20 10:44:26;;;;;;;;;4.00;1.25;;;;;23.17;46.58;100329.38;5043151;28;45446;-72
2023/09/20 10:46:53;;;;;;;;;2.75;2.00;;;;;23.22;45.93;100333.00;5025926;28;45547;-70
2023/09/20 10:49:37;;;;;;;;;1.00;1.00;;;;;23.01;46.92;100290.22;5031631;28;45357;-69
2023/09/20 10:52:03;;;;;;;;;1.00;1.00;;;;;23.17;46.15;100323.94;5002677;28;48064;-69
2023/09/20 10:54:30;;;;;;;;;1.00;1.00;;;;;23.19;45.40;100322.66;5041341;28;45502;-69
2023/09/20 10:57:05;;;;;;;;;3.00;3.00;;;;;22.95;45.60;100281.16;5019067;28;45265;-70
2023/09/20 10:59:31;;;;;;;;;3.25;1.75;;;;;23.00;45.76;100288.59;5035125;28;45571;-69
2023/09/20 11:02:08;;;;;;;;;1.75;1.75;;;;;23.23;45.52;100314.88;5021790;28;45579;-70
2023/09/20 11:04:35;;;;;;;;;3.00;2.50;;;;;23.22;46.04;100299.66;5037069;28;45475;-71
2023/09/20 11:07:02;;;;;;;;;7.00;5.33;;;;;23.23;45.52;100304.88;5022319;28;45412;-70
2023/09/20 11:09:31;;;;;;;;;1.00;1.00;;;;;23.00;45.90;100261.47;5033306;28;45471;-74
2023/09/20 11:12:03;;;;;;;;;1.75;1.00;;;;;23.21;46.70;100301.53;5019110;28;45930;-70
2023/09/20 11:14:31;;;;;;;;;4.00;2.00;;;;;23.25;47.03;100305.44;5028539;28;45535;-71
2023/09/20 11:16:56;;;;;;;;;5.25;4.75;;;;;23.35;47.60;100316.50;5024327;28;45518;-70
2023/09/20 11:19:22;;;;;;;;;6.33;6.00;;;;;23.37;47.35;100306.22;5027323;28;45590;-69
2023/09/20 11:21:47;;;;;;;;;4.00;3.00;;;;;23.29;47.39;100284.91;5015049;28;64144;-70
2023/09/20 11:24:15;;;;;;;;;1.00;1.00;;;;;23.30;47.09;100280.31;5034302;28;45501;-69
2023/09/20 11:26:40;;;;;;;;;3.00;1.75;;;;;23.40;47.14;100291.38;5023179;28;46109;-69
2023/09/20 11:29:10;;;;;;;;;1.75;1.75;;;;;23.30;46.85;100277.59;5032457;28;45602;-69
2023/09/20 11:31:36;;;;;;;;;0.25;0.25;;;;;23.37;47.36;100279.09;5006299;28;47253;-68
2023/09/20 11:34:04;;;;;;;;;1.25;1.25;;;;;23.47;47.49;100274.97;5022551;28;45460;-69
2023/09/20 11:36:37;;;;;;;;;2.25;1.50;;;;;23.51;47.01;100274.25;5027018;28;45503;-70
2023/09/20 11:39:03;;;;;;;;;0.00;0.00;;;;;23.45;46.92;100260.81;5030627;28;45506;-70
2023/09/20 11:41:30;;;;;;;;;1.00;1.00;;;;;23.55;46.66;100280.84;5026800;28;46642;-70
2023/09/20 11:43:56;;;;;;;;;2.25;2.25;;;;;23.49;46.90;100251.13;5020330;28;45510;-70
2023/09/20 11:46:22;;;;;;;;;1.00;1.00;;;;;23.38;47.12;100231.94;5029865;28;45495;-69
2023/09/20 11:48:49;;;;;;;;;1.25;1.25;;;;;23.66;46.88;100268.34;5018760;28;45384;-72
2023/09/20 11:51:15;;;;;;;;;4.00;2.75;;;;;23.61;45.93;100255.47;5025311;28;47013;-70
2023/09/20 11:53:44;;;;;;;;;4.00;2.00;;;;;23.66;46.83;100258.31;5017472;28;45273;-70
2023/09/20 11:56:09;;;;;;;;;5.50;3.75;;;;;23.74;45.88;100257.09;5034380;28;45381;-68
2023/09/20 11:58:36;;;;;;;;;2.00;2.00;;;;;23.61;46.29;100232.94;5017851;28;45832;-70
2023/09/20 12:01:04;;;;;;;;;2.33;2.33;;;;;23.74;46.89;100251.66;5022249;28;46775;-71
2023/09/20 12:03:30;;;;;;;;;4.50;2.25;;;;;23.46;46.59;100183.78;5017193;28;45445;-70
2023/09/20 12:05:55;;;;;;;;;2.00;2.00;;;;;23.85;46.14;100250.78;5029741;28;45353;-70